sensor_id;sensor_type;location;lat;lon;timestamp;P1;durP1;ratioP1;P2;durP2;ratioP2
568;SDS011;269;48.884;9.192;2023-05-10T00:02:10;1.33;;;1.23;;
568;SDS011;269;48.884;9.192;2023-05-10T00:04:38;1.13;;;1.03;;
568;SDS011;269;48.884;9.192;2023-05-10T00:07:05;0.80;;;0.80;;
568;SDS011;269;48.884;9.192;2023-05-10T00:09:32;0.97;;;0.87;;
568;SDS011;269;48.884;9.192;2023-05-10T00:11:59;1.00;;;0.80;;
568;SDS011;269;48.884;9.192;2023-05-10T00:14:26;0.70;;;0.60;;
568;SDS011;269;48.884;9.192;2023-05-10T00:16:53;0.70;;;0.70;;
568;SDS011;269;48.884;9.192;2023-05-10T00:19:20;1.20;;;0.60;;
568;SDS011;269;48.884;9.192;2023-05-10T00:21:49;0.70;;;0.50;;
568;SDS011;269;48.884;9.192;2023-05-10T00:24:16;1.52;;;0.50;;
568;SDS011;269;48.884;9.192;2023-05-10T00:26:43;1.90;;;0.60;;
568;SDS011;269;48.884;9.192;2023-05-10T00:29:10;0.70;;;0.60;;
568;SDS011;269;48.884;9.192;2023-05-10T00:31:37;1.20;;;0.60;;
568;SDS011;269;48.884;9.192;2023-05-10T00:34:04;1.00;;;0.60;;
568;SDS011;269;48.884;9.192;2023-05-10T00:36:31;0.70;;;0.50;;
568;SDS011;269;48.884;9.192;2023-05-10T00:38:59;1.45;;;0.60;;
568;SDS011;269;48.884;9.192;2023-05-10T00:41:27;0.60;;;0.60;;
568;SDS011;269;48.884;9.192;2023-05-10T00:43:54;0.60;;;0.50;;
568;SDS011;269;48.884;9.192;2023-05-10T00:46:21;0.82;;;0.60;;
568;SDS011;269;48.884;9.192;2023-05-10T00:48:48;0.90;;;0.65;;
568;SDS011;269;48.884;9.192;2023-05-10T00:51:15;0.63;;;0.63;;
568;SDS011;269;48.884;9.192;2023-05-10T00:53:43;1.50;;;0.70;;
568;SDS011;269;48.884;9.192;2023-05-10T00:56:12;0.70;;;0.70;;
568;SDS011;269;48.884;9.192;2023-05-10T00:58:39;0.80;;;0.57;;
568;SDS011;269;48.884;9.192;2023-05-10T01:01:07;0.80;;;0.80;;
568;SDS011;269;48.884;9.192;2023-05-10T01:03:35;1.70;;;0.85;;
568;SDS011;269;48.884;9.192;2023-05-10T01:06:02;0.75;;;0.73;;
568;SDS011;269;48.884;9.192;2023-05-10T01:08:30;1.00;;;0.90;;
568;SDS011;269;48.884;9.192;2023-05-10T01:10:57;0.80;;;0.80;;
568;SDS011;269;48.884;9.192;2023-05-10T01:13:30;0.93;;;0.80;;
568;SDS011;269;48.884;9.192;2023-05-10T01:15:59;0.93;;;0.70;;
568;SDS011;269;48.884;9.192;2023-05-10T01:18:27;1.37;;;1.27;;
568;SDS011;269;48.884;9.192;2023-05-10T01:21:11;1.60;;;1.50;;
568;SDS011;269;48.884;9.192;2023-05-10T01:23:54;1.40;;;1.20;;
568;SDS011;269;48.884;9.192;2023-05-10T01:27:02;1.88;;;1.33;;
568;SDS011;269;48.884;9.192;2023-05-10T01:30:05;1.40;;;1.30;;
568;SDS011;269;48.884;9.192;2023-05-10T01:32:49;1.80;;;1.70;;
568;SDS011;269;48.884;9.192;2023-05-10T01:35:23;1.80;;;1.70;;
568;SDS011;269;48.884;9.192;2023-05-10T01:37:59;1.33;;;1.23;;
568;SDS011;269;48.884;9.192;2023-05-10T01:40:35;1.83;;;1.73;;
568;SDS011;269;48.884;9.192;2023-05-10T01:43:11;1.73;;;1.63;;
568;SDS011;269;48.884;9.192;2023-05-10T01:45:51;1.63;;;1.40;;
568;SDS011;269;48.884;9.192;2023-05-10T01:48:31;2.45;;;1.60;;
568;SDS011;269;48.884;9.192;2023-05-10T01:50:59;1.85;;;1.75;;
568;SDS011;269;48.884;9.192;2023-05-10T01:53:27;1.83;;;1.73;;
568;SDS011;269;48.884;9.192;2023-05-10T01:55:55;1.58;;;1.48;;
568;SDS011;269;48.884;9.192;2023-05-10T01:58:23;1.50;;;1.40;;
568;SDS011;269;48.884;9.192;2023-05-10T02:00:54;1.80;;;1.70;;
568;SDS011;269;48.884;9.192;2023-05-10T02:03:23;1.80;;;1.70;;
568;SDS011;269;48.884;9.192;2023-05-10T02:05:54;3.00;;;1.33;;
568;SDS011;269;48.884;9.192;2023-05-10T02:08:24;1.97;;;1.50;;
568;SDS011;269;48.884;9.192;2023-05-10T02:10:52;1.60;;;1.50;;
568;SDS011;269;48.884;9.192;2023-05-10T02:13:22;1.53;;;1.43;;
568;SDS011;269;48.884;9.192;2023-05-10T02:15:51;1.50;;;1.40;;
568;SDS011;269;48.884;9.192;2023-05-10T02:18:20;1.87;;;1.67;;
568;SDS011;269;48.884;9.192;2023-05-10T02:20:48;1.80;;;1.70;;
568;SDS011;269;48.884;9.192;2023-05-10T02:23:19;1.60;;;1.50;;
568;SDS011;269;48.884;9.192;2023-05-10T02:25:47;2.25;;;1.60;;
568;SDS011;269;48.884;9.192;2023-05-10T02:28:15;1.90;;;1.80;;
568;SDS011;269;48.884;9.192;2023-05-10T02:30:45;1.90;;;1.80;;
568;SDS011;269;48.884;9.192;2023-05-10T02:33:14;1.87;;;1.70;;
568;SDS011;269;48.884;9.192;2023-05-10T02:35:41;5.17;;;1.90;;
568;SDS011;269;48.884;9.192;2023-05-10T02:38:09;1.90;;;1.80;;
568;SDS011;269;48.884;9.192;2023-05-10T02:40:39;1.80;;;1.70;;
568;SDS011;269;48.884;9.192;2023-05-10T02:43:09;1.77;;;1.67;;
568;SDS011;269;48.884;9.192;2023-05-10T02:45:39;1.80;;;1.70;;
568;SDS011;269;48.884;9.192;2023-05-10T02:48:07;2.00;;;1.90;;
568;SDS011;269;48.884;9.192;2023-05-10T02:50:35;2.20;;;2.10;;
568;SDS011;269;48.884;9.192;2023-05-10T02:53:18;1.77;;;1.67;;
568;SDS011;269;48.884;9.192;2023-05-10T02:55:50;3.20;;;1.75;;
568;SDS011;269;48.884;9.192;2023-05-10T02:58:19;1.70;;;1.60;;
568;SDS011;269;48.884;9.192;2023-05-10T03:00:46;2.28;;;1.95;;
568;SDS011;269;48.884;9.192;2023-05-10T03:03:13;1.70;;;1.60;;
568;SDS011;269;48.884;9.192;2023-05-10T03:05:40;2.00;;;1.90;;
568;SDS011;269;48.884;9.192;2023-05-10T03:08:07;2.28;;;2.17;;
568;SDS011;269;48.884;9.192;2023-05-10T03:10:37;2.23;;;2.03;;
568;SDS011;269;48.884;9.192;2023-05-10T03:13:16;2.63;;;2.43;;
568;SDS011;269;48.884;9.192;2023-05-10T03:15:54;2.23;;;2.13;;
568;SDS011;269;48.884;9.192;2023-05-10T03:18:28;3.07;;;2.87;;
568;SDS011;269;48.884;9.192;2023-05-10T03:21:02;2.50;;;2.30;;
568;SDS011;269;48.884;9.192;2023-05-10T03:23:33;2.20;;;2.10;;
568;SDS011;269;48.884;9.192;2023-05-10T03:26:02;2.40;;;2.30;;
568;SDS011;269;48.884;9.192;2023-05-10T03:28:32;2.90;;;2.70;;
568;SDS011;269;48.884;9.192;2023-05-10T03:31:01;2.75;;;2.40;;
568;SDS011;269;48.884;9.192;2023-05-10T03:33:30;3.58;;;3.30;;
568;SDS011;269;48.884;9.192;2023-05-10T03:35:57;2.97;;;2.78;;
568;SDS011;269;48.884;9.192;2023-05-10T03:38:24;2.83;;;2.60;;
568;SDS011;269;48.884;9.192;2023-05-10T03:40:51;3.00;;;2.80;;
568;SDS011;269;48.884;9.192;2023-05-10T03:43:18;2.90;;;2.70;;
568;SDS011;269;48.884;9.192;2023-05-10T03:45:47;3.10;;;2.67;;
568;SDS011;269;48.884;9.192;2023-05-10T03:48:14;3.40;;;3.13;;
568;SDS011;269;48.884;9.192;2023-05-10T03:50:41;3.33;;;3.03;;
568;SDS011;269;48.884;9.192;2023-05-10T03:53:08;3.88;;;3.60;;
568;SDS011;269;48.884;9.192;2023-05-10T03:55:35;3.90;;;3.70;;
568;SDS011;269;48.884;9.192;2023-05-10T03:58:02;3.30;;;3.10;;
568;SDS011;269;48.884;9.192;2023-05-10T04:00:29;3.58;;;3.38;;
568;SDS011;269;48.884;9.192;2023-05-10T04:02:58;3.63;;;3.33;;
568;SDS011;269;48.884;9.192;2023-05-10T04:05:25;4.00;;;3.70;;
568;SDS011;269;48.884;9.192;2023-05-10T04:07:52;4.30;;;3.90;;
568;SDS011;269;48.884;9.192;2023-05-10T04:10:20;3.80;;;3.60;;
568;SDS011;269;48.884;9.192;2023-05-10T04:12:47;3.78;;;3.58;;
568;SDS011;269;48.884;9.192;2023-05-10T04:15:14;3.47;;;3.28;;
568;SDS011;269;48.884;9.192;2023-05-10T04:17:41;3.40;;;3.20;;
568;SDS011;269;48.884;9.192;2023-05-10T04:20:10;3.35;;;3.15;;
568;SDS011;269;48.884;9.192;2023-05-10T04:22:38;3.23;;;3.03;;
568;SDS011;269;48.884;9.192;2023-05-10T04:25:05;3.70;;;3.40;;
568;SDS011;269;48.884;9.192;2023-05-10T04:27:33;3.50;;;2.97;;
568;SDS011;269;48.884;9.192;2023-05-10T04:30:00;2.90;;;2.70;;
568;SDS011;269;48.884;9.192;2023-05-10T04:32:28;2.50;;;2.40;;
568;SDS011;269;48.884;9.192;2023-05-10T04:34:55;2.78;;;2.58;;
568;SDS011;269;48.884;9.192;2023-05-10T04:37:24;3.00;;;2.30;;
568;SDS011;269;48.884;9.192;2023-05-10T04:39:51;2.90;;;2.70;;
568;SDS011;269;48.884;9.192;2023-05-10T04:42:19;2.90;;;2.43;;
568;SDS011;269;48.884;9.192;2023-05-10T04:44:46;3.33;;;2.45;;
568;SDS011;269;48.884;9.192;2023-05-10T04:47:13;2.40;;;2.20;;
568;SDS011;269;48.884;9.192;2023-05-10T04:49:41;2.20;;;2.00;;
568;SDS011;269;48.884;9.192;2023-05-10T04:52:08;2.13;;;2.03;;
568;SDS011;269;48.884;9.192;2023-05-10T04:54:38;2.10;;;2.00;;
568;SDS011;269;48.884;9.192;2023-05-10T04:57:05;1.80;;;1.70;;
568;SDS011;269;48.884;9.192;2023-05-10T04:59:35;3.50;;;2.40;;
568;SDS011;269;48.884;9.192;2023-05-10T05:02:02;2.27;;;2.17;;
568;SDS011;269;48.884;9.192;2023-05-10T05:04:29;2.40;;;2.20;;
568;SDS011;269;48.884;9.192;2023-05-10T05:06:57;2.37;;;2.17;;
568;SDS011;269;48.884;9.192;2023-05-10T05:09:24;2.90;;;2.13;;
568;SDS011;269;48.884;9.192;2023-05-10T05:11:52;2.77;;;2.53;;
568;SDS011;269;48.884;9.192;2023-05-10T05:14:20;2.73;;;2.53;;
568;SDS011;269;48.884;9.192;2023-05-10T05:16:47;2.37;;;2.17;;
568;SDS011;269;48.884;9.192;2023-05-10T05:19:14;1.80;;;1.70;;
568;SDS011;269;48.884;9.192;2023-05-10T05:21:41;2.40;;;2.30;;
568;SDS011;269;48.884;9.192;2023-05-10T05:24:09;2.10;;;2.00;;
568;SDS011;269;48.884;9.192;2023-05-10T05:26:37;2.10;;;1.90;;
568;SDS011;269;48.884;9.192;2023-05-10T05:29:06;3.17;;;2.37;;
568;SDS011;269;48.884;9.192;2023-05-10T05:31:33;2.33;;;2.13;;
568;SDS011;269;48.884;9.192;2023-05-10T05:34:00;4.03;;;2.13;;
568;SDS011;269;48.884;9.192;2023-05-10T05:36:27;2.70;;;2.50;;
568;SDS011;269;48.884;9.192;2023-05-10T05:38:54;3.10;;;2.27;;
568;SDS011;269;48.884;9.192;2023-05-10T05:41:22;2.10;;;2.00;;
568;SDS011;269;48.884;9.192;2023-05-10T05:43:49;3.70;;;2.40;;
568;SDS011;269;48.884;9.192;2023-05-10T05:46:18;2.73;;;2.50;;
568;SDS011;269;48.884;9.192;2023-05-10T05:48:45;2.97;;;2.67;;
568;SDS011;269;48.884;9.192;2023-05-10T05:51:12;2.83;;;2.63;;
568;SDS011;269;48.884;9.192;2023-05-10T05:53:39;3.73;;;3.17;;
568;SDS011;269;48.884;9.192;2023-05-10T05:56:06;3.37;;;3.10;;
568;SDS011;269;48.884;9.192;2023-05-10T05:58:34;3.43;;;3.00;;
568;SDS011;269;48.884;9.192;2023-05-10T06:01:01;2.90;;;2.70;;
568;SDS011;269;48.884;9.192;2023-05-10T06:03:30;2.90;;;2.60;;
568;SDS011;269;48.884;9.192;2023-05-10T06:05:57;2.97;;;2.70;;
568;SDS011;269;48.884;9.192;2023-05-10T06:08:25;3.20;;;3.00;;
568;SDS011;269;48.884;9.192;2023-05-10T06:10:52;3.30;;;3.00;;
568;SDS011;269;48.884;9.192;2023-05-10T06:13:19;3.37;;;2.70;;
568;SDS011;269;48.884;9.192;2023-05-10T06:15:47;2.90;;;2.70;;
568;SDS011;269;48.884;9.192;2023-05-10T06:18:14;2.80;;;2.60;;
568;SDS011;269;48.884;9.192;2023-05-10T06:20:42;2.90;;;2.60;;
568;SDS011;269;48.884;9.192;2023-05-10T06:23:09;2.77;;;2.53;;
568;SDS011;269;48.884;9.192;2023-05-10T06:25:36;2.67;;;2.43;;
568;SDS011;269;48.884;9.192;2023-05-10T06:28:03;3.63;;;2.70;;
568;SDS011;269;48.884;9.192;2023-05-10T06:30:30;3.57;;;2.83;;
568;SDS011;269;48.884;9.192;2023-05-10T06:32:57;2.57;;;2.37;;
568;SDS011;269;48.884;9.192;2023-05-10T06:35:24;2.50;;;2.00;;
568;SDS011;269;48.884;9.192;2023-05-10T06:37:53;2.73;;;2.40;;
568;SDS011;269;48.884;9.192;2023-05-10T06:40:20;2.87;;;2.67;;
568;SDS011;269;48.884;9.192;2023-05-10T06:42:47;2.80;;;2.53;;
568;SDS011;269;48.884;9.192;2023-05-10T06:45:15;2.70;;;2.50;;
568;SDS011;269;48.884;9.192;2023-05-10T06:47:42;2.30;;;2.10;;
568;SDS011;269;48.884;9.192;2023-05-10T06:50:10;2.63;;;2.43;;
568;SDS011;269;48.884;9.192;2023-05-10T06:52:37;2.40;;;2.20;;
568;SDS011;269;48.884;9.192;2023-05-10T06:55:06;2.43;;;2.13;;
568;SDS011;269;48.884;9.192;2023-05-10T06:57:34;2.70;;;2.10;;
568;SDS011;269;48.884;9.192;2023-05-10T07:00:02;1.87;;;1.77;;
568;SDS011;269;48.884;9.192;2023-05-10T07:02:30;3.67;;;2.50;;
568;SDS011;269;48.884;9.192;2023-05-10T07:04:57;2.00;;;1.90;;
568;SDS011;269;48.884;9.192;2023-05-10T07:07:24;2.07;;;1.97;;
568;SDS011;269;48.884;9.192;2023-05-10T07:09:51;1.90;;;1.80;;
568;SDS011;269;48.884;9.192;2023-05-10T07:12:19;2.20;;;1.83;;
568;SDS011;269;48.884;9.192;2023-05-10T07:14:47;1.97;;;1.87;;
568;SDS011;269;48.884;9.192;2023-05-10T07:17:14;2.67;;;2.20;;
568;SDS011;269;48.884;9.192;2023-05-10T07:19:41;3.60;;;2.10;;
568;SDS011;269;48.884;9.192;2023-05-10T07:22:08;2.87;;;1.90;;
568;SDS011;269;48.884;9.192;2023-05-10T07:24:35;2.10;;;1.90;;
568;SDS011;269;48.884;9.192;2023-05-10T07:27:02;1.93;;;1.70;;
568;SDS011;269;48.884;9.192;2023-05-10T07:29:32;1.60;;;1.50;;
568;SDS011;269;48.884;9.192;2023-05-10T07:31:59;1.93;;;1.77;;
568;SDS011;269;48.884;9.192;2023-05-10T07:34:26;3.00;;;1.53;;
568;SDS011;269;48.884;9.192;2023-05-10T07:36:56;1.40;;;1.30;;
568;SDS011;269;48.884;9.192;2023-05-10T07:39:25;2.53;;;1.60;;
568;SDS011;269;48.884;9.192;2023-05-10T07:41:52;1.73;;;1.40;;
568;SDS011;269;48.884;9.192;2023-05-10T07:44:19;1.60;;;1.30;;
568;SDS011;269;48.884;9.192;2023-05-10T07:46:47;1.40;;;1.30;;
568;SDS011;269;48.884;9.192;2023-05-10T07:49:15;1.30;;;1.20;;
568;SDS011;269;48.884;9.192;2023-05-10T07:51:43;1.13;;;1.03;;
568;SDS011;269;48.884;9.192;2023-05-10T07:54:10;1.27;;;1.10;;
568;SDS011;269;48.884;9.192;2023-05-10T07:56:37;1.37;;;1.00;;
568;SDS011;269;48.884;9.192;2023-05-10T07:59:06;1.30;;;1.20;;
568;SDS011;269;48.884;9.192;2023-05-10T08:01:33;2.83;;;1.17;;
568;SDS011;269;48.884;9.192;2023-05-10T08:04:02;1.10;;;1.00;;
568;SDS011;269;48.884;9.192;2023-05-10T08:06:29;1.13;;;1.03;;
568;SDS011;269;48.884;9.192;2023-05-10T08:08:56;1.10;;;1.00;;
568;SDS011;269;48.884;9.192;2023-05-10T08:11:23;1.00;;;0.90;;
568;SDS011;269;48.884;9.192;2023-05-10T08:13:53;0.80;;;0.70;;
568;SDS011;269;48.884;9.192;2023-05-10T08:16:20;2.20;;;1.00;;
568;SDS011;269;48.884;9.192;2023-05-10T08:18:47;2.70;;;0.93;;
568;SDS011;269;48.884;9.192;2023-05-10T08:21:17;2.03;;;1.50;;
568;SDS011;269;48.884;9.192;2023-05-10T08:23:44;1.90;;;0.97;;
568;SDS011;269;48.884;9.192;2023-05-10T08:26:11;0.80;;;0.70;;
568;SDS011;269;48.884;9.192;2023-05-10T08:28:38;0.90;;;0.80;;
568;SDS011;269;48.884;9.192;2023-05-10T08:31:05;0.90;;;0.83;;
568;SDS011;269;48.884;9.192;2023-05-10T08:33:32;0.97;;;0.70;;
568;SDS011;269;48.884;9.192;2023-05-10T08:36:00;1.53;;;1.03;;
568;SDS011;269;48.884;9.192;2023-05-10T08:38:28;1.37;;;1.07;;
568;SDS011;269;48.884;9.192;2023-05-10T08:40:55;1.20;;;0.90;;
568;SDS011;269;48.884;9.192;2023-05-10T08:43:25;1.00;;;0.80;;
568;SDS011;269;48.884;9.192;2023-05-10T08:45:54;0.60;;;0.60;;
568;SDS011;269;48.884;9.192;2023-05-10T08:48:22;1.07;;;0.90;;
568;SDS011;269;48.884;9.192;2023-05-10T08:50:52;0.90;;;0.70;;
568;SDS011;269;48.884;9.192;2023-05-10T08:53:20;1.63;;;1.23;;
568;SDS011;269;48.884;9.192;2023-05-10T08:55:52;1.00;;;0.70;;
568;SDS011;269;48.884;9.192;2023-05-10T08:58:19;0.87;;;0.77;;
568;SDS011;269;48.884;9.192;2023-05-10T09:00:46;2.70;;;0.87;;
568;SDS011;269;48.884;9.192;2023-05-10T09:03:15;1.10;;;0.70;;
568;SDS011;269;48.884;9.192;2023-05-10T09:05:42;0.70;;;0.60;;
568;SDS011;269;48.884;9.192;2023-05-10T09:08:09;0.60;;;0.50;;
568;SDS011;269;48.884;9.192;2023-05-10T09:10:38;1.67;;;0.60;;
568;SDS011;269;48.884;9.192;2023-05-10T09:13:08;0.80;;;0.73;;
568;SDS011;269;48.884;9.192;2023-05-10T09:15:37;1.00;;;0.60;;
568;SDS011;269;48.884;9.192;2023-05-10T09:18:05;1.73;;;0.70;;
568;SDS011;269;48.884;9.192;2023-05-10T09:20:32;0.70;;;0.60;;
568;SDS011;269;48.884;9.192;2023-05-10T09:22:59;1.03;;;0.70;;
568;SDS011;269;48.884;9.192;2023-05-10T09:25:26;0.70;;;0.70;;
568;SDS011;269;48.884;9.192;2023-05-10T09:27:53;1.57;;;0.70;;
568;SDS011;269;48.884;9.192;2023-05-10T09:30:26;1.47;;;0.90;;
568;SDS011;269;48.884;9.192;2023-05-10T09:32:54;0.80;;;0.70;;
568;SDS011;269;48.884;9.192;2023-05-10T09:35:23;0.73;;;0.60;;
568;SDS011;269;48.884;9.192;2023-05-10T09:37:52;1.50;;;0.70;;
568;SDS011;269;48.884;9.192;2023-05-10T09:40:21;0.90;;;0.80;;
568;SDS011;269;48.884;9.192;2023-05-10T09:42:52;1.20;;;0.63;;
568;SDS011;269;48.884;9.192;2023-05-10T09:45:21;1.23;;;0.67;;
568;SDS011;269;48.884;9.192;2023-05-10T09:47:50;0.93;;;0.70;;
568;SDS011;269;48.884;9.192;2023-05-10T09:50:18;1.17;;;0.70;;
568;SDS011;269;48.884;9.192;2023-05-10T09:52:47;1.03;;;0.70;;
568;SDS011;269;48.884;9.192;2023-05-10T09:55:15;0.70;;;0.60;;
568;SDS011;269;48.884;9.192;2023-05-10T09:57:43;1.43;;;0.73;;
568;SDS011;269;48.884;9.192;2023-05-10T10:00:10;2.33;;;1.10;;
568;SDS011;269;48.884;9.192;2023-05-10T10:02:45;0.70;;;0.70;;
568;SDS011;269;48.884;9.192;2023-05-10T10:05:14;0.80;;;0.70;;
568;SDS011;269;48.884;9.192;2023-05-10T10:07:43;1.00;;;0.90;;
568;SDS011;269;48.884;9.192;2023-05-10T10:10:10;0.90;;;0.80;;
568;SDS011;269;48.884;9.192;2023-05-10T10:12:38;4.07;;;1.53;;
568;SDS011;269;48.884;9.192;2023-05-10T10:15:07;0.70;;;0.70;;
568;SDS011;269;48.884;9.192;2023-05-10T10:17:35;0.97;;;0.70;;
568;SDS011;269;48.884;9.192;2023-05-10T10:20:04;1.13;;;0.90;;
568;SDS011;269;48.884;9.192;2023-05-10T10:22:34;0.90;;;0.80;;
568;SDS011;269;48.884;9.192;2023-05-10T10:25:01;1.20;;;0.70;;
568;SDS011;269;48.884;9.192;2023-05-10T10:27:28;1.47;;;0.80;;
568;SDS011;269;48.884;9.192;2023-05-10T10:30:03;1.20;;;1.00;;
568;SDS011;269;48.884;9.192;2023-05-10T10:32:44;1.43;;;0.70;;
568;SDS011;269;48.884;9.192;2023-05-10T10:35:25;0.80;;;0.80;;
568;SDS011;269;48.884;9.192;2023-05-10T10:37:54;0.90;;;0.70;;
568;SDS011;269;48.884;9.192;2023-05-10T10:40:24;1.50;;;0.80;;
568;SDS011;269;48.884;9.192;2023-05-10T10:42:53;0.90;;;0.80;;
568;SDS011;269;48.884;9.192;2023-05-10T10:45:21;1.20;;;0.63;;
568;SDS011;269;48.884;9.192;2023-05-10T10:47:52;1.20;;;0.80;;
568;SDS011;269;48.884;9.192;2023-05-10T10:50:43;1.27;;;0.80;;
568;SDS011;269;48.884;9.192;2023-05-10T10:53:14;0.80;;;0.70;;
568;SDS011;269;48.884;9.192;2023-05-10T10:55:45;0.73;;;0.70;;
568;SDS011;269;48.884;9.192;2023-05-10T10:58:28;1.77;;;0.60;;
568;SDS011;269;48.884;9.192;2023-05-10T11:01:08;1.13;;;0.70;;
568;SDS011;269;48.884;9.192;2023-05-10T11:03:39;1.13;;;0.90;;
568;SDS011;269;48.884;9.192;2023-05-10T11:06:07;2.00;;;0.70;;
568;SDS011;269;48.884;9.192;2023-05-10T11:08:41;0.87;;;0.63;;
568;SDS011;269;48.884;9.192;2023-05-10T11:11:13;0.90;;;0.80;;
568;SDS011;269;48.884;9.192;2023-05-10T11:13:41;1.43;;;0.80;;
568;SDS011;269;48.884;9.192;2023-05-10T11:16:10;2.90;;;0.90;;
568;SDS011;269;48.884;9.192;2023-05-10T11:18:39;4.13;;;1.30;;
568;SDS011;269;48.884;9.192;2023-05-10T11:21:08;1.87;;;1.13;;
568;SDS011;269;48.884;9.192;2023-05-10T11:23:51;0.90;;;0.80;;
568;SDS011;269;48.884;9.192;2023-05-10T11:26:21;1.20;;;1.10;;
568;SDS011;269;48.884;9.192;2023-05-10T11:28:51;1.00;;;0.90;;
568;SDS011;269;48.884;9.192;2023-05-10T11:31:20;1.13;;;1.03;;
568;SDS011;269;48.884;9.192;2023-05-10T11:33:48;1.67;;;0.90;;
568;SDS011;269;48.884;9.192;2023-05-10T11:36:17;2.60;;;1.07;;
568;SDS011;269;48.884;9.192;2023-05-10T11:38:45;1.50;;;0.90;;
568;SDS011;269;48.884;9.192;2023-05-10T11:41:16;1.60;;;0.90;;
568;SDS011;269;48.884;9.192;2023-05-10T11:43:45;1.50;;;1.10;;
568;SDS011;269;48.884;9.192;2023-05-10T11:46:14;1.57;;;0.90;;
568;SDS011;269;48.884;9.192;2023-05-10T11:48:42;1.50;;;1.00;;
568;SDS011;269;48.884;9.192;2023-05-10T11:51:10;1.20;;;0.93;;
568;SDS011;269;48.884;9.192;2023-05-10T11:53:37;1.77;;;1.13;;
568;SDS011;269;48.884;9.192;2023-05-10T11:56:05;1.60;;;1.10;;
568;SDS011;269;48.884;9.192;2023-05-10T11:58:34;1.07;;;0.90;;
568;SDS011;269;48.884;9.192;2023-05-10T12:01:03;2.30;;;1.20;;
568;SDS011;269;48.884;9.192;2023-05-10T12:03:31;1.90;;;1.20;;
568;SDS011;269;48.884;9.192;2023-05-10T12:05:58;2.90;;;1.27;;
568;SDS011;269;48.884;9.192;2023-05-10T12:08:27;2.30;;;1.10;;
568;SDS011;269;48.884;9.192;2023-05-10T12:11:03;1.80;;;1.17;;
568;SDS011;269;48.884;9.192;2023-05-10T12:13:31;3.83;;;1.20;;
568;SDS011;269;48.884;9.192;2023-05-10T12:16:00;2.23;;;1.10;;
568;SDS011;269;48.884;9.192;2023-05-10T12:18:39;2.30;;;1.73;;
568;SDS011;269;48.884;9.192;2023-05-10T12:21:07;2.03;;;1.50;;
568;SDS011;269;48.884;9.192;2023-05-10T12:23:36;1.63;;;1.30;;
568;SDS011;269;48.884;9.192;2023-05-10T12:26:04;2.30;;;1.20;;
568;SDS011;269;48.884;9.192;2023-05-10T12:28:31;3.90;;;1.33;;
568;SDS011;269;48.884;9.192;2023-05-10T12:31:01;1.10;;;1.00;;
568;SDS011;269;48.884;9.192;2023-05-10T12:33:34;1.57;;;1.03;;
568;SDS011;269;48.884;9.192;2023-05-10T12:36:04;1.63;;;0.90;;
568;SDS011;269;48.884;9.192;2023-05-10T12:38:32;3.70;;;1.10;;
568;SDS011;269;48.884;9.192;2023-05-10T12:41:01;1.37;;;0.93;;
568;SDS011;269;48.884;9.192;2023-05-10T12:43:29;1.47;;;1.00;;
568;SDS011;269;48.884;9.192;2023-05-10T12:45:56;1.73;;;0.97;;
568;SDS011;269;48.884;9.192;2023-05-10T12:48:25;1.97;;;1.20;;
568;SDS011;269;48.884;9.192;2023-05-10T12:50:54;1.63;;;0.90;;
568;SDS011;269;48.884;9.192;2023-05-10T12:53:21;1.27;;;1.03;;
568;SDS011;269;48.884;9.192;2023-05-10T12:55:48;2.00;;;1.00;;
568;SDS011;269;48.884;9.192;2023-05-10T12:58:15;2.83;;;1.00;;
568;SDS011;269;48.884;9.192;2023-05-10T13:00:42;3.20;;;0.80;;
568;SDS011;269;48.884;9.192;2023-05-10T13:03:10;1.10;;;1.00;;
568;SDS011;269;48.884;9.192;2023-05-10T13:05:38;1.57;;;0.90;;
568;SDS011;269;48.884;9.192;2023-05-10T13:08:05;3.37;;;1.20;;
568;SDS011;269;48.884;9.192;2023-05-10T13:10:32;2.03;;;1.00;;
568;SDS011;269;48.884;9.192;2023-05-10T13:12:59;1.67;;;0.93;;
568;SDS011;269;48.884;9.192;2023-05-10T13:15:26;2.20;;;0.97;;
568;SDS011;269;48.884;9.192;2023-05-10T13:17:53;1.30;;;0.90;;
568;SDS011;269;48.884;9.192;2023-05-10T13:20:21;2.43;;;1.10;;
568;SDS011;269;48.884;9.192;2023-05-10T13:22:49;1.97;;;1.20;;
568;SDS011;269;48.884;9.192;2023-05-10T13:25:16;1.10;;;0.90;;
568;SDS011;269;48.884;9.192;2023-05-10T13:27:43;1.53;;;0.80;;
568;SDS011;269;48.884;9.192;2023-05-10T13:30:10;1.40;;;0.90;;
568;SDS011;269;48.884;9.192;2023-05-10T13:32:38;1.43;;;1.20;;
568;SDS011;269;48.884;9.192;2023-05-10T13:35:06;1.37;;;0.87;;
568;SDS011;269;48.884;9.192;2023-05-10T13:37:34;1.80;;;0.73;;
568;SDS011;269;48.884;9.192;2023-05-10T13:40:04;1.83;;;0.80;;
568;SDS011;269;48.884;9.192;2023-05-10T13:42:33;2.43;;;1.00;;
568;SDS011;269;48.884;9.192;2023-05-10T13:45:00;1.83;;;0.70;;
568;SDS011;269;48.884;9.192;2023-05-10T13:47:27;1.70;;;1.20;;
568;SDS011;269;48.884;9.192;2023-05-10T13:49:54;2.20;;;1.17;;
568;SDS011;269;48.884;9.192;2023-05-10T13:52:22;1.40;;;0.90;;
568;SDS011;269;48.884;9.192;2023-05-10T13:54:49;0.93;;;0.87;;
568;SDS011;269;48.884;9.192;2023-05-10T13:57:18;1.13;;;0.97;;
568;SDS011;269;48.884;9.192;2023-05-10T13:59:45;1.00;;;0.90;;
568;SDS011;269;48.884;9.192;2023-05-10T14:02:13;3.63;;;1.10;;
568;SDS011;269;48.884;9.192;2023-05-10T14:04:40;1.77;;;1.00;;
568;SDS011;269;48.884;9.192;2023-05-10T14:07:07;2.23;;;0.90;;
568;SDS011;269;48.884;9.192;2023-05-10T14:09:34;2.97;;;1.00;;
568;SDS011;269;48.884;9.192;2023-05-10T14:12:02;1.20;;;1.00;;
568;SDS011;269;48.884;9.192;2023-05-10T14:14:30;1.10;;;0.97;;
568;SDS011;269;48.884;9.192;2023-05-10T14:16:57;1.10;;;1.00;;
568;SDS011;269;48.884;9.192;2023-05-10T14:19:24;2.03;;;1.10;;
568;SDS011;269;48.884;9.192;2023-05-10T14:21:52;1.60;;;0.93;;
568;SDS011;269;48.884;9.192;2023-05-10T14:24:19;1.10;;;1.00;;
568;SDS011;269;48.884;9.192;2023-05-10T14:26:46;1.70;;;0.80;;
568;SDS011;269;48.884;9.192;2023-05-10T14:29:13;1.00;;;0.90;;
568;SDS011;269;48.884;9.192;2023-05-10T14:31:41;2.83;;;0.93;;
568;SDS011;269;48.884;9.192;2023-05-10T14:34:08;2.53;;;0.80;;
568;SDS011;269;48.884;9.192;2023-05-10T14:36:36;1.23;;;0.73;;
568;SDS011;269;48.884;9.192;2023-05-10T14:39:03;1.57;;;1.00;;
568;SDS011;269;48.884;9.192;2023-05-10T14:41:30;1.70;;;0.80;;
568;SDS011;269;48.884;9.192;2023-05-10T14:43:57;2.43;;;1.17;;
568;SDS011;269;48.884;9.192;2023-05-10T14:46:24;0.90;;;0.70;;
568;SDS011;269;48.884;9.192;2023-05-10T14:48:53;2.10;;;1.10;;
568;SDS011;269;48.884;9.192;2023-05-10T14:51:20;1.20;;;0.90;;
568;SDS011;269;48.884;9.192;2023-05-10T14:53:47;1.27;;;0.87;;
568;SDS011;269;48.884;9.192;2023-05-10T14:56:14;4.17;;;1.20;;
568;SDS011;269;48.884;9.192;2023-05-10T14:58:42;0.97;;;0.80;;
568;SDS011;269;48.884;9.192;2023-05-10T15:01:09;3.53;;;1.20;;
568;SDS011;269;48.884;9.192;2023-05-10T15:03:36;0.90;;;0.90;;
568;SDS011;269;48.884;9.192;2023-05-10T15:06:05;1.67;;;0.70;;
568;SDS011;269;48.884;9.192;2023-05-10T15:08:34;1.40;;;0.90;;
568;SDS011;269;48.884;9.192;2023-05-10T15:11:01;2.03;;;0.87;;
568;SDS011;269;48.884;9.192;2023-05-10T15:13:28;1.17;;;0.70;;
568;SDS011;269;48.884;9.192;2023-05-10T15:15:55;1.07;;;0.87;;
568;SDS011;269;48.884;9.192;2023-05-10T15:18:22;1.70;;;0.90;;
568;SDS011;269;48.884;9.192;2023-05-10T15:20:49;1.10;;;1.00;;
568;SDS011;269;48.884;9.192;2023-05-10T15:23:18;1.93;;;0.93;;
568;SDS011;269;48.884;9.192;2023-05-10T15:25:45;1.90;;;0.77;;
568;SDS011;269;48.884;9.192;2023-05-10T15:28:12;1.73;;;1.00;;
568;SDS011;269;48.884;9.192;2023-05-10T15:30:39;1.07;;;0.83;;
568;SDS011;269;48.884;9.192;2023-05-10T15:33:06;2.40;;;0.77;;
568;SDS011;269;48.884;9.192;2023-05-10T15:35:34;1.43;;;0.70;;
568;SDS011;269;48.884;9.192;2023-05-10T15:38:03;2.07;;;0.80;;
568;SDS011;269;48.884;9.192;2023-05-10T15:40:32;1.70;;;0.80;;
568;SDS011;269;48.884;9.192;2023-05-10T15:42:59;1.13;;;1.00;;
568;SDS011;269;48.884;9.192;2023-05-10T15:45:26;1.63;;;0.70;;
568;SDS011;269;48.884;9.192;2023-05-10T15:47:53;1.37;;;0.80;;
568;SDS011;269;48.884;9.192;2023-05-10T15:50:21;1.33;;;0.87;;
568;SDS011;269;48.884;9.192;2023-05-10T15:52:47;1.87;;;0.80;;
568;SDS011;269;48.884;9.192;2023-05-10T15:55:14;1.77;;;1.00;;